Time;durP1;ratioP1;P1;durP2;ratioP2;P2;SDS_P1;SDS_P2;PMS_P1;PMS_P2;Temp;Humidity;BMP_temperature;BMP_pressure;BME280_temperature;BME280_humidity;BME280_pressure;Samples;Min_cycle;Max_cycle;Signal;HPM_P1;HPM_P2
2024/03/12 00:00:48;;;;;;;9.27;8.20;;;9.20;99.90;;;;;;5054093;28;20200;-68
2024/03/12 00:03:15;;;;;;;20.40;11.40;;;9.10;99.90;;;;;;5046718;28;20204;-68
2024/03/12 00:05:43;;;;;;;11.02;9.05;;;9.20;99.90;;;;;;5053600;28;20230;-67
2024/03/12 00:08:10;;;;;;;11.70;8.80;;;9.20;99.90;;;;;;5050133;28;20724;-68
2024/03/12 00:10:38;;;;;;;12.68;9.90;;;9.10;99.90;;;;;;5048620;28;20228;-69
2024/03/12 00:13:06;;;;;;;12.90;10.25;;;9.10;99.90;;;;;;5040651;28;20204;-69
2024/03/12 00:15:36;;;;;;;10.90;9.35;;;9.00;99.90;;;;;;5049878;28;20328;-67
2024/03/12 00:18:05;;;;;;;16.02;9.98;;;9.00;99.90;;;;;;5046075;28;20262;-69
2024/03/12 00:20:33;;;;;;;13.55;10.13;;;9.00;99.90;;;;;;5046924;28;20580;-69
2024/03/12 00:23:01;;;;;;;11.40;9.15;;;9.00;99.90;;;;;;5054181;28;20204;-68
2024/03/12 00:25:30;;;;;;;13.48;9.68;;;8.90;99.90;;;;;;5047764;28;20596;-69
2024/03/12 00:27:58;;;;;;;11.77;9.88;;;8.90;99.90;;;;;;5050344;28;20701;-67
2024/03/12 00:30:27;;;;;;;13.43;10.98;;;9.00;99.90;;;;;;5045654;28;20678;-72
2024/03/12 00:32:56;;;;;;;12.30;11.00;;;9.00;99.90;;;;;;5051358;28;20279;-65
2024/03/12 00:35:24;;;;;;;11.55;10.05;;;8.80;99.90;;;;;;5049589;28;20237;-69
2024/03/12 00:37:51;;;;;;;11.00;8.95;;;8.80;99.90;;;;;;5052360;28;20682;-66
2024/03/12 00:40:20;;;;;;;13.32;10.20;;;8.90;99.90;;;;;;5059482;28;20699;-67
2024/03/12 00:42:48;;;;;;;11.98;10.68;;;8.90;99.90;;;;;;5046321;28;20207;-66
2024/03/12 00:45:19;;;;;;;12.85;10.02;;;8.80;99.90;;;;;;5046259;28;20281;-67
2024/03/12 00:47:47;;;;;;;15.02;10.40;;;8.80;99.90;;;;;;5049812;28;20256;-64
2024/03/12 00:50:16;;;;;;;12.50;10.68;;;8.70;99.90;;;;;;5048871;28;20204;-70
2024/03/12 00:52:43;;;;;;;13.20;10.13;;;8.70;99.90;;;;;;5046044;28;20204;-70
2024/03/12 00:55:16;;;;;;;14.45;11.00;;;8.70;99.90;;;;;;5051438;28;20239;-69
2024/03/12 00:57:45;;;;;;;10.98;9.57;;;8.70;99.90;;;;;;5048160;28;20617;-69
2024/03/12 01:00:17;;;;;;;14.98;11.13;;;8.70;99.90;;;;;;5047940;28;20204;-70
2024/03/12 01:02:48;;;;;;;10.63;9.50;;;8.60;99.90;;;;;;5050528;28;20231;-73
2024/03/12 01:05:17;;;;;;;12.15;9.50;;;8.50;99.90;;;;;;5052880;28;20746;-68
2024/03/12 01:07:45;;;;;;;13.18;11.45;;;8.60;99.90;;;;;;5043086;28;20380;-67
2024/03/12 01:10:12;;;;;;;11.98;9.75;;;8.50;99.90;;;;;;5052698;28;20207;-71
2024/03/12 01:12:39;;;;;;;12.68;10.35;;;8.50;99.90;;;;;;5049151;28;20611;-67
2024/03/12 01:15:09;;;;;;;14.40;10.65;;;8.40;99.90;;;;;;5053308;28;20224;-69
2024/03/12 01:17:37;;;;;;;14.02;11.50;;;8.40;99.90;;;;;;5055654;28;20238;-71
2024/03/12 01:20:09;;;;;;;16.80;12.70;;;8.50;99.90;;;;;;5053528;28;20206;-67
2024/03/12 01:22:38;;;;;;;15.23;10.60;;;8.40;99.90;;;;;;5048781;28;20662;-66
2024/03/12 01:25:07;;;;;;;13.55;11.30;;;8.40;99.90;;;;;;5051448;28;20307;-68
2024/03/12 01:27:35;;;;;;;11.98;9.18;;;8.50;99.90;;;;;;5050902;28;20216;-69
2024/03/12 01:30:06;;;;;;;14.65;12.25;;;8.50;99.90;;;;;;5038647;28;20620;-70
2024/03/12 01:32:33;;;;;;;12.52;10.95;;;8.50;99.90;;;;;;5049025;28;20279;-68
2024/03/12 01:35:03;;;;;;;14.88;12.15;;;8.50;99.90;;;;;;5047175;28;20239;-70
2024/03/12 01:37:31;;;;;;;13.20;10.50;;;8.50;99.90;;;;;;5041081;28;20607;-68
2024/03/12 01:40:00;;;;;;;13.38;10.88;;;8.50;99.90;;;;;;5049891;28;20218;-69
2024/03/12 01:42:27;;;;;;;15.07;13.00;;;8.50;99.90;;;;;;5044119;28;20291;-70
2024/03/12 01:44:55;;;;;;;15.55;11.70;;;8.40;99.90;;;;;;5047725;28;20200;-69
2024/03/12 01:47:24;;;;;;;16.10;11.88;;;8.40;99.90;;;;;;5046459;28;20200;-70
2024/03/12 01:49:52;;;;;;;12.57;9.98;;;8.40;99.90;;;;;;5042193;28;20204;-69
2024/03/12 01:52:23;;;;;;;14.00;10.95;;;8.40;99.90;;;;;;5052791;28;20722;-70
2024/03/12 01:54:50;;;;;;;16.92;13.68;;;8.50;99.90;;;;;;5051298;28;20208;-68
2024/03/12 01:57:20;;;;;;;13.52;11.32;;;8.40;99.90;;;;;;5040599;28;20223;-70
2024/03/12 01:59:47;;;;;;;15.95;12.15;;;8.50;99.90;;;;;;5042883;28;20254;-67
2024/03/12 02:05:52;;;;;;;14.00;11.98;;;8.30;99.90;;;;;;5041298;28;20199;-68
2024/03/12 02:08:19;;;;;;;14.90;12.50;;;8.20;99.90;;;;;;5042777;28;20666;-68
2024/03/12 02:10:46;;;;;;;19.67;13.18;;;8.20;99.90;;;;;;5045513;28;20722;-69
2024/03/12 02:13:14;;;;;;;14.90;12.13;;;8.20;99.90;;;;;;5050283;28;20200;-66
2024/03/12 02:15:43;;;;;;;16.23;11.80;;;8.20;99.90;;;;;;5048662;28;20227;-70
2024/03/12 02:18:09;;;;;;;17.25;11.52;;;8.30;99.90;;;;;;5036526;28;20297;-68
2024/03/12 02:20:37;;;;;;;16.15;13.32;;;8.20;99.90;;;;;;5048018;28;20257;-68
2024/03/12 02:23:05;;;;;;;16.40;13.45;;;8.30;99.90;;;;;;5049540;28;20581;-69
2024/03/12 02:25:33;;;;;;;17.95;14.60;;;8.30;99.90;;;;;;5040766;28;20216;-68
2024/03/12 02:28:02;;;;;;;18.05;13.88;;;8.30;99.90;;;;;;5043465;28;20257;-68
2024/03/12 02:30:29;;;;;;;15.82;13.40;;;8.40;99.90;;;;;;5045935;28;20617;-69
2024/03/12 02:32:56;;;;;;;16.95;12.13;;;8.40;99.90;;;;;;5049511;28;20228;-69
2024/03/12 02:35:23;;;;;;;15.25;11.90;;;8.40;99.90;;;;;;5047029;28;20289;-68
2024/03/12 02:37:50;;;;;;;19.88;13.38;;;8.50;99.90;;;;;;5046296;28;20618;-68
2024/03/12 02:40:18;;;;;;;19.35;13.68;;;8.50;99.90;;;;;;5045406;28;20203;-71
2024/03/12 02:42:46;;;;;;;18.45;14.27;;;8.60;99.90;;;;;;5040240;28;20200;-68
2024/03/12 02:45:14;;;;;;;19.35;15.38;;;8.60;99.90;;;;;;5046921;28;20224;-70
2024/03/12 02:47:41;;;;;;;16.83;11.98;;;8.60;99.90;;;;;;5038058;28;20204;-70
2024/03/12 02:50:09;;;;;;;19.77;14.88;;;8.60;99.90;;;;;;5049731;28;20200;-68
2024/03/12 02:52:37;;;;;;;18.23;12.57;;;8.60;99.90;;;;;;5044030;28;20197;-69
2024/03/12 02:55:05;;;;;;;18.70;13.77;;;8.70;99.90;;;;;;5037823;28;20230;-70
2024/03/12 02:57:32;;;;;;;18.95;12.90;;;8.70;99.90;;;;;;5048412;28;20253;-66
2024/03/12 03:00:00;;;;;;;18.85;14.30;;;8.80;99.90;;;;;;5042469;28;20651;-67
2024/03/12 03:02:29;;;;;;;18.40;13.63;;;8.80;99.90;;;;;;5044996;28;20342;-68
2024/03/12 03:04:56;;;;;;;15.88;12.88;;;8.80;99.90;;;;;;5051015;28;20200;-71
2024/03/12 03:07:24;;;;;;;17.65;13.98;;;8.90;99.90;;;;;;5051849;28;20204;-69
2024/03/12 03:09:51;;;;;;;18.50;14.23;;;8.90;99.90;;;;;;5049635;28;20228;-71
2024/03/12 03:12:18;;;;;;;20.50;15.63;;;9.00;99.90;;;;;;5061379;28;20204;-67
2024/03/12 03:14:45;;;;;;;21.40;15.68;;;9.00;99.90;;;;;;5054921;28;20208;-66
2024/03/12 03:17:14;;;;;;;20.58;16.20;;;9.00;99.90;;;;;;5050848;28;20236;-68
2024/03/12 03:19:41;;;;;;;20.70;15.40;;;9.10;99.90;;;;;;5054607;28;20214;-68
2024/03/12 03:22:09;;;;;;;21.17;15.88;;;9.10;99.90;;;;;;5048697;28;20258;-67
2024/03/12 03:24:37;;;;;;;18.65;15.18;;;9.20;99.90;;;;;;5049609;28;20250;-69
2024/03/12 03:27:04;;;;;;;19.20;15.05;;;9.20;99.90;;;;;;5044678;28;20236;-70
2024/03/12 03:29:31;;;;;;;21.88;15.75;;;9.20;99.90;;;;;;5051334;28;20228;-68
2024/03/12 03:31:59;;;;;;;20.10;16.00;;;9.30;99.90;;;;;;5048079;28;20200;-68
2024/03/12 03:34:28;;;;;;;21.55;16.65;;;9.40;99.90;;;;;;5052305;28;20279;-69
2024/03/12 03:36:56;;;;;;;24.45;17.98;;;9.40;99.90;;;;;;5048500;28;20223;-70
2024/03/12 03:39:24;;;;;;;20.67;15.45;;;9.40;99.90;;;;;;5046057;28;20562;-70
2024/03/12 03:41:52;;;;;;;24.42;17.90;;;9.40;99.90;;;;;;5046942;28;20293;-69
2024/03/12 03:44:20;;;;;;;28.65;20.58;;;9.40;99.90;;;;;;5048389;28;20196;-67
2024/03/12 03:46:48;;;;;;;35.40;24.88;;;9.40;99.90;;;;;;5053991;28;20227;-68
2024/03/12 03:49:15;;;;;;;27.55;20.15;;;9.40;99.90;;;;;;5050611;28;20636;-68
2024/03/12 03:51:43;;;;;;;24.33;18.15;;;9.30;99.90;;;;;;5049410;28;20243;-71
2024/03/12 03:54:10;;;;;;;25.23;19.25;;;9.30;99.90;;;;;;5047077;28;20262;-67
2024/03/12 03:56:37;;;;;;;24.30;17.92;;;9.30;99.90;;;;;;5044586;28;20264;-69
2024/03/12 03:59:05;;;;;;;24.50;19.48;;;9.20;99.90;;;;;;5048796;28;20258;-66
2024/03/12 04:01:33;;;;;;;23.95;19.23;;;9.20;99.90;;;;;;5054179;28;20627;-70
2024/03/12 04:04:10;;;;;;;23.30;18.75;;;9.20;99.90;;;;;;5054150;28;20337;-67
2024/03/12 04:06:37;;;;;;;24.05;19.10;;;9.30;99.90;;;;;;5042777;28;20712;-67
2024/03/12 04:09:05;;;;;;;27.63;19.15;;;9.30;99.90;;;;;;5051944;28;20282;-67
2024/03/12 04:11:33;;;;;;;27.30;20.63;;;9.30;99.90;;;;;;5046559;28;20201;-68
2024/03/12 04:14:00;;;;;;;28.88;21.27;;;9.30;99.90;;;;;;5050956;28;20207;-68
2024/03/12 04:16:27;;;;;;;25.60;18.90;;;9.40;99.90;;;;;;5047577;28;20226;-68
2024/03/12 04:18:58;;;;;;;27.58;18.55;;;9.40;99.90;;;;;;5050646;28;20192;-68
2024/03/12 04:21:26;;;;;;;26.95;19.52;;;9.40;99.90;;;;;;5049197;28;20200;-67
2024/03/12 04:23:53;;;;;;;28.27;20.48;;;9.40;99.90;;;;;;5055319;28;20228;-66
2024/03/12 04:26:21;;;;;;;26.67;20.20;;;9.40;99.90;;;;;;5057215;28;20278;-68
2024/03/12 04:28:49;;;;;;;25.02;18.77;;;9.40;99.90;;;;;;5047112;28;20569;-68
2024/03/12 04:31:20;;;;;;;32.30;20.10;;;9.40;99.90;;;;;;5053512;28;20200;-67
2024/03/12 04:33:47;;;;;;;28.58;20.45;;;9.40;99.90;;;;;;5048191;28;20240;-67
2024/03/12 04:36:14;;;;;;;25.70;19.75;;;9.40;99.90;;;;;;5050382;28;20714;-67
2024/03/12 04:38:41;;;;;;;28.88;21.00;;;9.40;99.90;;;;;;5051065;28;20246;-68
2024/03/12 04:41:09;;;;;;;29.15;18.88;;;9.30;99.90;;;;;;5047022;28;20209;-66
2024/03/12 04:43:37;;;;;;;27.33;19.25;;;9.30;99.90;;;;;;5053025;28;20204;-68
2024/03/12 04:46:04;;;;;;;29.08;20.73;;;9.30;99.90;;;;;;5046405;28;20241;-69
2024/03/12 04:48:31;;;;;;;31.83;20.50;;;9.30;99.90;;;;;;5047467;28;20270;-69
2024/03/12 04:50:58;;;;;;;26.83;19.75;;;9.30;99.90;;;;;;5048522;28;20209;-69
2024/03/12 04:53:25;;;;;;;27.38;19.92;;;9.30;99.90;;;;;;5040551;28;20200;-68
2024/03/12 04:55:52;;;;;;;28.20;20.65;;;9.30;99.90;;;;;;5046687;28;20282;-71
2024/03/12 04:58:19;;;;;;;27.23;19.10;;;9.30;99.90;;;;;;5042754;28;20678;-68
2024/03/12 05:00:47;;;;;;;25.15;19.60;;;9.30;99.90;;;;;;5044314;28;20237;-68
2024/03/12 05:03:14;;;;;;;26.58;20.13;;;9.30;99.90;;;;;;5049274;28;20254;-67
2024/03/12 05:05:41;;;;;;;23.13;19.00;;;9.30;99.90;;;;;;5055572;28;20260;-69
2024/03/12 05:08:08;;;;;;;28.38;17.88;;;9.30;99.90;;;;;;5047578;28;20206;-69
2024/03/12 05:10:36;;;;;;;24.17;17.35;;;9.30;99.90;;;;;;5044905;28;20675;-66
2024/03/12 05:13:03;;;;;;;29.02;18.67;;;9.30;99.90;;;;;;5046136;28;20224;-68
2024/03/12 05:15:30;;;;;;;28.80;20.25;;;9.30;99.90;;;;;;5047376;28;20262;-68
2024/03/12 05:17:59;;;;;;;25.52;18.40;;;9.30;99.90;;;;;;5039361;28;20208;-71
2024/03/12 05:20:25;;;;;;;26.02;17.08;;;9.40;99.90;;;;;;5051402;28;20192;-69
2024/03/12 05:22:53;;;;;;;25.85;18.70;;;9.40;99.90;;;;;;5046073;28;20207;-67
2024/03/12 05:25:23;;;;;;;25.45;18.85;;;9.30;99.90;;;;;;5039817;28;20259;-70
2024/03/12 05:27:50;;;;;;;26.27;19.95;;;9.30;99.90;;;;;;5047584;28;20205;-67
2024/03/12 05:30:20;;;;;;;20.33;16.73;;;9.20;99.90;;;;;;5037438;28;20216;-70
2024/03/12 05:32:47;;;;;;;26.75;16.92;;;9.20;99.90;;;;;;5047351;28;20201;-67
2024/03/12 05:35:21;;;;;;;23.95;18.92;;;9.30;99.90;;;;;;5047511;28;20240;-67
2024/03/12 05:38:07;;;;;;;27.42;19.65;;;9.40;99.90;;;;;;5042462;28;20247;-68
2024/03/12 05:40:42;;;;;;;26.77;18.75;;;9.30;99.90;;;;;;5047343;28;20278;-68
2024/03/12 05:48:40;;;;;;;29.73;19.15;;;9.60;99.90;;;;;;5039573;28;20640;-66
2024/03/12 05:51:09;;;;;;;29.40;19.90;;;9.60;99.90;;;;;;5050409;28;20722;-69
2024/03/12 05:53:36;;;;;;;30.80;21.98;;;9.60;99.90;;;;;;5047357;28;20204;-68
2024/03/12 05:56:06;;;;;;;32.95;21.73;;;9.60;99.90;;;;;;5048127;28;20225;-68
2024/03/12 05:58:33;;;;;;;30.65;19.52;;;9.60;99.90;;;;;;5045719;28;20210;-69
2024/03/12 06:01:00;;;;;;;26.88;19.45;;;9.60;99.90;;;;;;5042993;28;20200;-69
2024/03/12 06:03:30;;;;;;;33.05;19.30;;;9.70;99.90;;;;;;5047664;28;20250;-67
2024/03/12 06:05:57;;;;;;;36.45;21.90;;;9.60;99.90;;;;;;5043237;28;20283;-69
2024/03/12 06:08:26;;;;;;;28.83;18.05;;;9.70;99.90;;;;;;5040816;28;20252;-68
2024/03/12 06:10:53;;;;;;;45.85;22.45;;;9.70;99.90;;;;;;5045914;28;20261;-70
2024/03/12 06:13:22;;;;;;;32.35;22.42;;;9.70;99.90;;;;;;5043174;28;20251;-69
2024/03/12 06:15:49;;;;;;;31.88;21.60;;;9.70;99.90;;;;;;5047688;28;20584;-72
2024/03/12 06:18:19;;;;;;;33.40;22.20;;;9.70;99.90;;;;;;5050478;28;20204;-70
2024/03/12 06:20:46;;;;;;;30.48;21.02;;;9.70;99.90;;;;;;5049258;28;20667;-69
2024/03/12 06:23:14;;;;;;;31.90;22.83;;;9.60;99.90;;;;;;5047086;28;20209;-70
2024/03/12 06:25:43;;;;;;;36.15;24.23;;;9.70;99.90;;;;;;5042866;28;20283;-67
2024/03/12 06:28:11;;;;;;;27.73;20.35;;;9.70;99.90;;;;;;5049577;28;20204;-71
2024/03/12 06:30:38;;;;;;;30.58;21.98;;;9.80;99.90;;;;;;5044310;28;20645;-71
2024/03/12 06:33:07;;;;;;;33.30;25.10;;;9.80;99.90;;;;;;5041332;28;20254;-72
2024/03/12 06:35:34;;;;;;;31.25;22.27;;;9.70;99.90;;;;;;5043754;28;20422;-68
2024/03/12 06:38:04;;;;;;;29.63;21.77;;;9.80;99.90;;;;;;5047481;28;20266;-70
2024/03/12 06:40:32;;;;;;;34.78;23.55;;;9.80;99.90;;;;;;5043359;28;20196;-70
2024/03/12 06:43:00;;;;;;;35.55;24.48;;;9.80;99.90;;;;;;5047722;28;20712;-72
2024/03/12 06:45:28;;;;;;;31.30;22.90;;;9.80;99.90;;;;;;5055387;28;20251;-69
2024/03/12 06:47:56;;;;;;;35.35;24.70;;;9.70;99.90;;;;;;5044044;28;20227;-70
2024/03/12 06:50:25;;;;;;;36.45;26.35;;;9.70;99.90;;;;;;5052428;28;20221;-69
2024/03/12 06:52:53;;;;;;;36.97;25.95;;;9.70;99.90;;;;;;5051177;28;20215;-69
2024/03/12 06:55:23;;;;;;;34.95;23.45;;;9.70;99.90;;;;;;5055883;28;20235;-68
2024/03/12 06:57:54;;;;;;;36.70;26.45;;;9.70;99.90;;;;;;5051460;28;20677;-69
2024/03/12 07:00:31;;;;;;;38.22;25.55;;;9.70;99.90;;;;;;5047388;28;20200;-71
2024/03/12 07:02:58;;;;;;;37.70;26.30;;;9.70;99.90;;;;;;5050557;28;20692;-68
2024/03/12 07:05:29;;;;;;;44.55;28.85;;;9.60;99.90;;;;;;5044671;28;20220;-69
2024/03/12 07:07:56;;;;;;;44.45;29.52;;;9.70;99.90;;;;;;5045017;28;20207;-70
2024/03/12 07:10:25;;;;;;;46.63;31.08;;;9.50;99.90;;;;;;5048721;28;20223;-69
2024/03/12 07:12:52;;;;;;;44.80;30.70;;;9.60;99.90;;;;;;5039550;28;20552;-67
2024/03/12 07:15:19;;;;;;;38.47;28.60;;;9.50;99.90;;;;;;5046120;28;21684;-71
2024/03/12 07:17:48;;;;;;;43.80;30.10;;;9.50;99.90;;;;;;5041517;28;20207;-68
2024/03/12 07:20:16;;;;;;;44.83;29.42;;;9.50;99.90;;;;;;5052332;28;20212;-72
2024/03/12 07:22:43;;;;;;;45.40;30.17;;;9.50;99.90;;;;;;5048654;28;20207;-69
2024/03/12 07:25:11;;;;;;;42.30;29.58;;;9.50;99.90;;;;;;5046239;28;20326;-74
2024/03/12 07:27:39;;;;;;;43.63;29.23;;;9.60;99.90;;;;;;5045933;28;20200;-69
2024/03/12 07:30:10;;;;;;;45.00;31.45;;;9.60;99.90;;;;;;5048433;28;20220;-71
2024/03/12 07:32:37;;;;;;;45.92;30.17;;;9.70;99.90;;;;;;5052748;28;20227;-72
2024/03/12 07:35:06;;;;;;;42.00;28.45;;;9.70;99.90;;;;;;5049854;28;20224;-72
2024/03/12 07:37:36;;;;;;;43.30;30.17;;;9.60;99.90;;;;;;5047563;28;20207;-70
2024/03/12 07:40:04;;;;;;;40.22;30.40;;;9.70;99.90;;;;;;5052137;28;20215;-72
2024/03/12 07:42:32;;;;;;;42.05;30.95;;;9.60;99.90;;;;;;5047453;28;20208;-68
2024/03/12 07:44:59;;;;;;;49.67;33.28;;;9.60;99.90;;;;;;5050421;28;20307;-72
2024/03/12 07:47:26;;;;;;;40.40;26.55;;;9.70;99.90;;;;;;5047382;28;20339;-73
2024/03/12 07:49:54;;;;;;;47.78;31.92;;;9.80;99.90;;;;;;5047938;28;20224;-72
2024/03/12 07:52:22;;;;;;;41.08;30.30;;;9.80;99.90;;;;;;5052527;28;20205;-70
2024/03/12 07:54:49;;;;;;;45.42;31.75;;;9.80;99.90;;;;;;5048316;28;20219;-73
2024/03/12 07:57:18;;;;;;;49.70;34.15;;;9.80;99.90;;;;;;5052314;28;20231;-72
2024/03/12 07:59:46;;;;;;;51.78;34.10;;;9.70;99.90;;;;;;5048021;28;20192;-70
2024/03/12 08:02:16;;;;;;;45.13;32.22;;;9.60;99.90;;;;;;5053552;28;20207;-72
2024/03/12 08:04:43;;;;;;;54.13;35.22;;;9.60;99.90;;;;;;5043513;28;20671;-69
2024/03/12 08:07:11;;;;;;;50.35;35.80;;;9.50;99.90;;;;;;5051487;28;20203;-72
2024/03/12 08:09:39;;;;;;;53.70;33.58;;;9.50;99.90;;;;;;5046656;28;20659;-72
2024/03/12 08:12:07;;;;;;;49.95;33.42;;;9.50;99.90;;;;;;5051353;28;20673;-71
2024/03/12 08:14:35;;;;;;;56.65;35.97;;;9.60;99.90;;;;;;5044218;28;20200;-72
2024/03/12 08:17:05;;;;;;;49.67;33.08;;;9.60;99.90;;;;;;5036549;28;20315;-69
2024/03/12 08:19:32;;;;;;;48.97;34.03;;;9.60;99.90;;;;;;5048232;28;20207;-71
2024/03/12 08:21:59;;;;;;;53.35;34.92;;;9.70;99.90;;;;;;5044591;28;20208;-69
2024/03/12 08:24:28;;;;;;;55.35;34.55;;;9.70;99.90;;;;;;5045641;28;20648;-72
2024/03/12 08:26:58;;;;;;;53.42;33.17;;;9.80;99.90;;;;;;5044598;28;20229;-69
2024/03/12 08:29:26;;;;;;;50.13;34.80;;;9.80;99.90;;;;;;5039195;28;20636;-70
2024/03/12 08:31:54;;;;;;;54.15;35.13;;;9.90;99.90;;;;;;5048255;28;20691;-68
2024/03/12 08:34:21;;;;;;;53.75;32.88;;;9.80;99.90;;;;;;5044736;28;20210;-72
2024/03/12 08:36:48;;;;;;;55.10;35.72;;;9.70;99.90;;;;;;5044585;28;20223;-68
2024/03/12 08:39:15;;;;;;;57.80;36.45;;;9.70;99.90;;;;;;5047982;28;20205;-72
2024/03/12 08:41:44;;;;;;;57.85;35.95;;;9.70;99.90;;;;;;5046673;28;20197;-71
2024/03/12 08:44:13;;;;;;;66.55;39.05;;;9.70;99.90;;;;;;5040978;28;20757;-71
2024/03/12 08:46:41;;;;;;;58.05;36.40;;;9.70;99.90;;;;;;5046412;28;20244;-69
2024/03/12 08:49:10;;;;;;;58.17;37.60;;;9.70;99.90;;;;;;5044443;28;20645;-69
2024/03/12 08:51:39;;;;;;;64.22;38.55;;;9.90;99.90;;;;;;5053368;28;20208;-69
2024/03/12 08:54:06;;;;;;;58.13;35.97;;;10.00;99.90;;;;;;5046476;28;20714;-71
2024/03/12 08:56:35;;;;;;;61.80;38.33;;;10.00;99.90;;;;;;5049760;28;20224;-72
2024/03/12 08:59:02;;;;;;;56.25;37.22;;;9.90;99.90;;;;;;5050930;28;20204;-70
2024/03/12 09:01:31;;;;;;;51.88;35.92;;;10.00;99.90;;;;;;5044899;28;20241;-72
2024/03/12 09:03:58;;;;;;;63.45;36.90;;;10.00;99.90;;;;;;5048317;28;20589;-68
2024/03/12 09:06:26;;;;;;;48.40;33.80;;;10.10;99.90;;;;;;5047467;28;20289;-71
2024/03/12 09:08:53;;;;;;;57.55;36.33;;;10.20;99.90;;;;;;5051318;28;20243;-68
2024/03/12 09:11:20;;;;;;;60.40;37.83;;;10.20;99.90;;;;;;5050825;28;20210;-71
2024/03/12 09:13:47;;;;;;;58.60;38.83;;;10.10;99.90;;;;;;5053039;28;20198;-72
2024/03/12 09:16:14;;;;;;;53.80;35.95;;;10.00;99.90;;;;;;5051656;28;20289;-70
2024/03/12 09:18:43;;;;;;;51.00;32.90;;;10.10;99.90;;;;;;5045882;28;20251;-70
2024/03/12 09:21:10;;;;;;;54.70;36.03;;;10.20;99.90;;;;;;5049748;28;20196;-71
2024/03/12 09:23:38;;;;;;;53.10;36.83;;;10.30;99.90;;;;;;5044078;28;20197;-70
2024/03/12 09:26:06;;;;;;;51.25;35.80;;;10.30;99.90;;;;;;5049014;28;20224;-71
2024/03/12 09:28:36;;;;;;;56.78;39.25;;;10.30;99.90;;;;;;5047550;28;20254;-75
2024/03/12 09:31:04;;;;;;;53.90;34.78;;;10.30;99.90;;;;;;5044105;28;20232;-69
2024/03/12 09:33:31;;;;;;;56.63;36.40;;;10.40;99.90;;;;;;5046398;28;20593;-68
2024/03/12 09:35:59;;;;;;;49.90;34.83;;;10.60;99.90;;;;;;5051846;28;20229;-72
2024/03/12 09:38:26;;;;;;;47.22;31.67;;;10.80;99.90;;;;;;5051376;28;20291;-70
2024/03/12 09:40:56;;;;;;;49.05;34.47;;;11.00;99.90;;;;;;5041424;28;20204;-70
2024/03/12 09:43:26;;;;;;;48.58;33.53;;;11.40;99.90;;;;;;5047508;28;20714;-72
2024/03/12 09:45:54;;;;;;;41.30;31.20;;;11.70;99.90;;;;;;5049086;28;20232;-71
2024/03/12 09:48:21;;;;;;;43.78;32.20;;;11.90;99.90;;;;;;5044192;28;20817;-68
2024/03/12 09:50:49;;;;;;;49.05;30.67;;;12.20;99.90;;;;;;5045619;28;20221;-68
2024/03/12 09:53:18;;;;;;;40.90;32.25;;;12.60;99.90;;;;;;5052754;28;20207;-70
2024/03/12 09:55:46;;;;;;;37.63;29.13;;;13.20;99.90;;;;;;5048684;28;20308;-73
2024/03/12 09:58:13;;;;;;;41.45;29.25;;;13.90;99.90;;;;;;5034644;28;20204;-72
2024/03/12 10:00:41;;;;;;;38.73;28.23;;;14.80;99.90;;;;;;5046323;28;20196;-71
2024/03/12 10:03:08;;;;;;;34.97;27.27;;;15.40;99.90;;;;;;5042024;28;20452;-71
2024/03/12 10:05:37;;;;;;;39.53;27.57;;;16.30;99.90;;;;;;5050886;28;20873;-69
2024/03/12 10:08:12;;;;;;;35.30;27.87;;;16.70;99.90;;;;;;5052494;28;20504;-68
2024/03/12 10:10:43;;;;;;;34.50;26.47;;;17.20;99.90;;;;;;5047685;28;20531;-73
2024/03/12 10:13:14;;;;;;;34.00;25.80;;;17.20;99.90;;;;;;5045838;28;20494;-69
2024/03/12 10:15:54;;;;;;;34.33;25.47;;;16.80;99.80;;;;;;5047045;28;20522;-70
2024/03/12 10:18:21;;;;;;;37.10;25.97;;;15.30;99.90;;;;;;5047288;28;20546;-70
2024/03/12 10:20:50;;;;;;;34.87;25.70;;;15.30;99.90;;;;;;5051161;28;20439;-71
2024/03/12 10:23:18;;;;;;;34.30;24.23;;;15.70;99.90;;;;;;5049438;28;20520;-74
2024/03/12 10:25:49;;;;;;;33.10;25.77;;;15.50;99.90;;;;;;5045029;28;20471;-71
2024/03/12 10:28:18;;;;;;;35.17;24.92;;;14.80;99.90;;;;;;5047681;28;20479;-69
2024/03/12 10:30:46;;;;;;;35.57;28.30;;;15.00;99.90;;;;;;5047524;28;20226;-67
2024/03/12 10:33:16;;;;;;;35.45;25.95;;;14.90;99.90;;;;;;5048434;28;20485;-70
2024/03/12 10:35:46;;;;;;;36.73;26.20;;;14.60;99.90;;;;;;5048360;28;20250;-69
2024/03/12 10:38:14;;;;;;;37.80;27.08;;;14.20;99.90;;;;;;5046621;28;20442;-69
2024/03/12 10:40:42;;;;;;;33.50;24.42;;;13.80;99.90;;;;;;5044718;28;20562;-69
2024/03/12 10:43:11;;;;;;;35.90;26.48;;;13.30;99.90;;;;;;5046270;28;20207;-69
2024/03/12 10:45:39;;;;;;;38.53;27.40;;;12.80;99.90;;;;;;5050930;28;20250;-69
2024/03/12 10:48:10;;;;;;;38.60;27.60;;;12.80;99.90;;;;;;5045814;28;20606;-70
2024/03/12 10:50:40;;;;;;;34.88;24.40;;;12.60;99.90;;;;;;5047630;28;20259;-71
2024/03/12 10:53:11;;;;;;;37.15;25.52;;;12.90;99.90;;;;;;5051555;28;20246;-69
2024/03/12 10:55:40;;;;;;;40.80;27.65;;;12.90;99.90;;;;;;5048060;28;20219;-68
2024/03/12 10:58:08;;;;;;;35.33;25.85;;;12.70;99.90;;;;;;5042996;28;20240;-69
2024/03/12 11:00:39;;;;;;;33.78;25.48;;;12.70;99.90;;;;;;5044382;28;21065;-70
2024/03/12 11:03:09;;;;;;;37.08;26.27;;;13.10;99.90;;;;;;5044484;28;20223;-69
2024/03/12 11:05:38;;;;;;;34.00;23.85;;;13.60;99.90;;;;;;5042615;28;20255;-68
2024/03/12 11:08:09;;;;;;;37.75;26.52;;;14.00;99.90;;;;;;5037110;28;20209;-67
2024/03/12 11:10:37;;;;;;;31.80;23.25;;;14.00;99.90;;;;;;5043086;28;20556;-69
2024/03/12 11:13:06;;;;;;;28.17;22.33;;;13.90;99.90;;;;;;5042559;28;20212;-68
2024/03/12 11:15:34;;;;;;;31.98;21.77;;;13.70;99.90;;;;;;5046183;28;20584;-68
2024/03/12 11:18:03;;;;;;;32.92;24.15;;;13.80;99.90;;;;;;5044758;28;20204;-69
2024/03/12 11:20:31;;;;;;;32.55;24.50;;;13.50;99.90;;;;;;5037839;28;20265;-66
2024/03/12 11:23:00;;;;;;;34.42;24.17;;;13.30;99.90;;;;;;5041972;28;20203;-70
2024/03/12 11:25:34;;;;;;;30.17;23.20;;;13.10;99.90;;;;;;5050520;28;20311;-67
2024/03/12 11:28:20;;;;;;;37.00;24.65;;;12.70;99.90;;;;;;5048939;28;20208;-67
2024/03/12 11:30:47;;;;;;;34.88;24.75;;;12.60;99.90;;;;;;5045234;28;20223;-71
2024/03/12 11:33:45;;;;;;;31.92;22.52;;;12.40;99.90;;;;;;5052809;28;20200;-65
2024/03/12 11:36:13;;;;;;;43.17;25.95;;;12.40;99.90;;;;;;5050773;28;20649;-71
2024/03/12 11:38:41;;;;;;;32.45;23.40;;;12.10;99.90;;;;;;5054144;28;20540;-68
2024/03/12 11:41:09;;;;;;;29.50;23.25;;;12.10;99.90;;;;;;5050968;28;20197;-67
2024/03/12 11:43:40;;;;;;;34.38;23.17;;;12.10;99.90;;;;;;5049131;28;20651;-65
2024/03/12 11:46:08;;;;;;;32.15;22.63;;;12.10;99.90;;;;;;5045943;28;20223;-67
2024/03/12 11:48:36;;;;;;;34.20;24.25;;;12.20;99.90;;;;;;5050882;28;20204;-74
2024/03/12 11:51:09;;;;;;;37.50;24.23;;;12.20;99.90;;;;;;5050784;28;20224;-70
2024/03/12 11:53:38;;;;;;;33.50;25.13;;;12.30;99.90;;;;;;5049206;28;20199;-67
2024/03/12 11:56:15;;;;;;;35.40;24.02;;;12.40;99.90;;;;;;5051162;28;20621;-67
2024/03/12 11:58:46;;;;;;;32.50;24.08;;;12.60;99.90;;;;;;5050407;28;20283;-68
2024/03/12 12:01:18;;;;;;;35.03;25.38;;;12.80;99.90;;;;;;5052621;28;20374;-70
2024/03/12 12:03:47;;;;;;;32.45;23.35;;;12.80;99.90;;;;;;5055355;28;20260;-66
2024/03/12 12:06:19;;;;;;;34.58;26.55;;;12.60;99.90;;;;;;5055616;28;20239;-70
2024/03/12 12:08:47;;;;;;;34.13;23.95;;;12.50;99.90;;;;;;5052791;28;20211;-66
2024/03/12 12:11:16;;;;;;;39.60;24.60;;;12.60;99.90;;;;;;5051837;28;20758;-70
2024/03/12 12:13:46;;;;;;;39.92;23.60;;;12.70;99.90;;;;;;5047070;28;20205;-69
2024/03/12 12:16:16;;;;;;;35.58;24.30;;;12.90;99.90;;;;;;5051150;28;20236;-68
2024/03/12 12:18:44;;;;;;;35.63;25.10;;;12.90;99.90;;;;;;5048479;28;20234;-71
2024/03/12 12:21:14;;;;;;;38.55;23.58;;;13.00;99.90;;;;;;5044264;28;20212;-68
2024/03/12 12:23:45;;;;;;;34.95;24.00;;;13.30;99.90;;;;;;5054092;28;20597;-68
2024/03/12 12:26:14;;;;;;;34.38;23.85;;;13.60;99.90;;;;;;5052983;28;20605;-67
2024/03/12 12:28:41;;;;;;;33.53;24.65;;;13.60;99.90;;;;;;5053293;28;20253;-66
2024/03/12 12:31:11;;;;;;;41.17;27.30;;;13.60;99.90;;;;;;5048199;28;20228;-71
2024/03/12 12:33:39;;;;;;;35.97;25.85;;;13.50;99.90;;;;;;5047606;28;20204;-67
2024/03/12 12:36:12;;;;;;;32.22;22.55;;;13.30;99.90;;;;;;5049962;28;20236;-71
2024/03/12 12:38:41;;;;;;;31.65;24.02;;;13.00;99.90;;;;;;5043117;28;20277;-68
2024/03/12 12:41:11;;;;;;;36.72;24.60;;;12.80;99.90;;;;;;5045962;28;20196;-69
2024/03/12 12:43:39;;;;;;;33.13;23.45;;;12.70;99.90;;;;;;5049644;28;20195;-71
2024/03/12 12:46:16;;;;;;;32.28;23.75;;;12.70;99.90;;;;;;5048914;28;20231;-68
2024/03/12 12:48:44;;;;;;;33.72;24.77;;;12.80;99.90;;;;;;5055271;28;20204;-68